sensor_id;sensor_type;location;lat;lon;timestamp;pressure;altitude;pressure_sealevel;temperature
13570;BMP180;6856;51.460;7.158;2023-04-03T00:01:20;101668.00;;;6.90
13570;BMP180;6856;51.460;7.158;2023-04-03T00:03:54;101698.00;;;6.90
13570;BMP180;6856;51.460;7.158;2023-04-03T00:06:30;101703.00;;;6.90
13570;BMP180;6856;51.460;7.158;2023-04-03T00:09:04;101702.00;;;6.90
13570;BMP180;6856;51.460;7.158;2023-04-03T00:11:41;101687.00;;;6.80
13570;BMP180;6856;51.460;7.158;2023-04-03T00:14:15;101700.00;;;6.80
13570;BMP180;6856;51.460;7.158;2023-04-03T00:16:49;101690.00;;;6.80
13570;BMP180;6856;51.460;7.158;2023-04-03T00:19:23;101695.00;;;6.80
13570;BMP180;6856;51.460;7.158;2023-04-03T00:21:57;101695.00;;;6.70
13570;BMP180;6856;51.460;7.158;2023-04-03T00:24:32;101698.00;;;6.70
13570;BMP180;6856;51.460;7.158;2023-04-03T00:27:06;101695.00;;;6.70
13570;BMP180;6856;51.460;7.158;2023-04-03T00:29:40;101690.00;;;6.70
13570;BMP180;6856;51.460;7.158;2023-04-03T00:32:14;101694.00;;;6.70
13570;BMP180;6856;51.460;7.158;2023-04-03T00:34:47;101690.00;;;6.60
13570;BMP180;6856;51.460;7.158;2023-04-03T00:37:23;101696.00;;;6.60
13570;BMP180;6856;51.460;7.158;2023-04-03T00:39:57;101703.00;;;6.60
13570;BMP180;6856;51.460;7.158;2023-04-03T00:42:30;101699.00;;;6.60
13570;BMP180;6856;51.460;7.158;2023-04-03T00:45:28;101704.00;;;6.50
13570;BMP180;6856;51.460;7.158;2023-04-03T00:48:05;101707.00;;;6.50
13570;BMP180;6856;51.460;7.158;2023-04-03T00:50:43;101706.00;;;6.50
13570;BMP180;6856;51.460;7.158;2023-04-03T00:53:25;101709.00;;;6.50
13570;BMP180;6856;51.460;7.158;2023-04-03T00:56:00;101697.00;;;6.40
13570;BMP180;6856;51.460;7.158;2023-04-03T00:58:40;101700.00;;;6.40
13570;BMP180;6856;51.460;7.158;2023-04-03T01:01:20;101703.00;;;6.40
13570;BMP180;6856;51.460;7.158;2023-04-03T01:03:55;101665.00;;;6.40
13570;BMP180;6856;51.460;7.158;2023-04-03T01:06:32;101706.00;;;6.30
13570;BMP180;6856;51.460;7.158;2023-04-03T01:09:10;101700.00;;;6.30
13570;BMP180;6856;51.460;7.158;2023-04-03T01:11:44;101702.00;;;6.30
13570;BMP180;6856;51.460;7.158;2023-04-03T01:14:18;101700.00;;;6.30
13570;BMP180;6856;51.460;7.158;2023-04-03T01:16:53;101704.00;;;6.20
13570;BMP180;6856;51.460;7.158;2023-04-03T01:19:28;101704.00;;;6.20
13570;BMP180;6856;51.460;7.158;2023-04-03T01:22:15;101710.00;;;6.20
13570;BMP180;6856;51.460;7.158;2023-04-03T01:24:55;101718.00;;;6.20
13570;BMP180;6856;51.460;7.158;2023-04-03T01:27:29;101717.00;;;6.20
13570;BMP180;6856;51.460;7.158;2023-04-03T01:30:03;101722.00;;;6.20
13570;BMP180;6856;51.460;7.158;2023-04-03T01:32:39;101708.00;;;6.20
13570;BMP180;6856;51.460;7.158;2023-04-03T01:35:13;101712.00;;;6.20
13570;BMP180;6856;51.460;7.158;2023-04-03T01:37:47;101711.00;;;6.20
13570;BMP180;6856;51.460;7.158;2023-04-03T01:40:21;101713.00;;;6.20
13570;BMP180;6856;51.460;7.158;2023-04-03T01:42:55;101713.00;;;6.10
13570;BMP180;6856;51.460;7.158;2023-04-03T01:45:30;101716.00;;;6.10
13570;BMP180;6856;51.460;7.158;2023-04-03T01:48:05;101715.00;;;6.10
13570;BMP180;6856;51.460;7.158;2023-04-03T01:50:40;101714.00;;;6.10
13570;BMP180;6856;51.460;7.158;2023-04-03T01:53:14;101710.00;;;6.10
13570;BMP180;6856;51.460;7.158;2023-04-03T01:55:49;101715.00;;;6.20
13570;BMP180;6856;51.460;7.158;2023-04-03T01:58:22;101719.00;;;6.20
13570;BMP180;6856;51.460;7.158;2023-04-03T02:00:56;101723.00;;;6.20
13570;BMP180;6856;51.460;7.158;2023-04-03T02:03:32;101722.00;;;6.20
13570;BMP180;6856;51.460;7.158;2023-04-03T02:06:06;101730.00;;;6.20
13570;BMP180;6856;51.460;7.158;2023-04-03T02:08:41;101728.00;;;6.20
13570;BMP180;6856;51.460;7.158;2023-04-03T02:11:15;101727.00;;;6.20
13570;BMP180;6856;51.460;7.158;2023-04-03T02:13:48;101724.00;;;6.20
13570;BMP180;6856;51.460;7.158;2023-04-03T02:16:22;101726.00;;;6.20
13570;BMP180;6856;51.460;7.158;2023-04-03T02:18:57;101731.00;;;6.20
13570;BMP180;6856;51.460;7.158;2023-04-03T02:21:31;101728.00;;;6.20
13570;BMP180;6856;51.460;7.158;2023-04-03T02:24:05;101729.00;;;6.20
13570;BMP180;6856;51.460;7.158;2023-04-03T02:26:40;101728.00;;;6.20
13570;BMP180;6856;51.460;7.158;2023-04-03T02:29:14;101725.00;;;6.20
13570;BMP180;6856;51.460;7.158;2023-04-03T02:31:48;101734.00;;;6.20
13570;BMP180;6856;51.460;7.158;2023-04-03T02:34:24;101735.00;;;6.20
13570;BMP180;6856;51.460;7.158;2023-04-03T02:36:58;101741.00;;;6.20
13570;BMP180;6856;51.460;7.158;2023-04-03T02:39:32;101739.00;;;6.20
13570;BMP180;6856;51.460;7.158;2023-04-03T02:42:06;101726.00;;;6.20
13570;BMP180;6856;51.460;7.158;2023-04-03T02:44:40;101735.00;;;6.20
13570;BMP180;6856;51.460;7.158;2023-04-03T02:47:15;101740.00;;;6.20
13570;BMP180;6856;51.460;7.158;2023-04-03T02:49:50;101742.00;;;6.20
13570;BMP180;6856;51.460;7.158;2023-04-03T02:52:25;101750.00;;;6.20
13570;BMP180;6856;51.460;7.158;2023-04-03T02:54:58;101732.00;;;6.20
13570;BMP180;6856;51.460;7.158;2023-04-03T02:57:32;101743.00;;;6.20
13570;BMP180;6856;51.460;7.158;2023-04-03T03:00:09;101741.00;;;6.10
13570;BMP180;6856;51.460;7.158;2023-04-03T03:02:43;101737.00;;;6.10
13570;BMP180;6856;51.460;7.158;2023-04-03T03:05:18;101724.00;;;6.10
13570;BMP180;6856;51.460;7.158;2023-04-03T03:07:53;101741.00;;;6.10
13570;BMP180;6856;51.460;7.158;2023-04-03T03:10:27;101746.00;;;6.00
13570;BMP180;6856;51.460;7.158;2023-04-03T03:13:01;101746.00;;;6.10
13570;BMP180;6856;51.460;7.158;2023-04-03T03:15:35;101741.00;;;6.00
13570;BMP180;6856;51.460;7.158;2023-04-03T03:18:08;101757.00;;;6.00
13570;BMP180;6856;51.460;7.158;2023-04-03T03:20:44;101746.00;;;6.00
13570;BMP180;6856;51.460;7.158;2023-04-03T03:23:18;101748.00;;;5.90
13570;BMP180;6856;51.460;7.158;2023-04-03T03:25:56;101749.00;;;5.90
13570;BMP180;6856;51.460;7.158;2023-04-03T03:28:30;101745.00;;;5.90
13570;BMP180;6856;51.460;7.158;2023-04-03T03:31:05;101735.00;;;5.90
13570;BMP180;6856;51.460;7.158;2023-04-03T03:33:39;101751.00;;;5.90
13570;BMP180;6856;51.460;7.158;2023-04-03T03:36:15;101750.00;;;5.80
13570;BMP180;6856;51.460;7.158;2023-04-03T03:38:48;101758.00;;;5.80
13570;BMP180;6856;51.460;7.158;2023-04-03T03:41:22;101750.00;;;5.80
13570;BMP180;6856;51.460;7.158;2023-04-03T03:43:57;101760.00;;;5.80
13570;BMP180;6856;51.460;7.158;2023-04-03T03:46:31;101750.00;;;5.80
13570;BMP180;6856;51.460;7.158;2023-04-03T03:49:05;101751.00;;;5.80
13570;BMP180;6856;51.460;7.158;2023-04-03T03:51:41;101742.00;;;5.80
13570;BMP180;6856;51.460;7.158;2023-04-03T03:54:14;101727.00;;;5.80
13570;BMP180;6856;51.460;7.158;2023-04-03T03:56:48;101747.00;;;5.80
13570;BMP180;6856;51.460;7.158;2023-04-03T03:59:22;101745.00;;;5.80
13570;BMP180;6856;51.460;7.158;2023-04-03T04:01:56;101755.00;;;5.80
13570;BMP180;6856;51.460;7.158;2023-04-03T04:04:30;101754.00;;;5.80
13570;BMP180;6856;51.460;7.158;2023-04-03T04:07:06;101754.00;;;5.80
13570;BMP180;6856;51.460;7.158;2023-04-03T04:09:40;101755.00;;;5.80
13570;BMP180;6856;51.460;7.158;2023-04-03T04:12:14;101745.00;;;5.80
13570;BMP180;6856;51.460;7.158;2023-04-03T04:14:48;101757.00;;;5.70
13570;BMP180;6856;51.460;7.158;2023-04-03T04:17:21;101766.00;;;5.70
13570;BMP180;6856;51.460;7.158;2023-04-03T04:19:55;101759.00;;;5.70
13570;BMP180;6856;51.460;7.158;2023-04-03T04:22:31;101757.00;;;5.70
13570;BMP180;6856;51.460;7.158;2023-04-03T04:25:05;101762.00;;;5.60
13570;BMP180;6856;51.460;7.158;2023-04-03T04:27:39;101763.00;;;5.60
13570;BMP180;6856;51.460;7.158;2023-04-03T04:30:13;101757.00;;;5.60
13570;BMP180;6856;51.460;7.158;2023-04-03T04:32:47;101761.00;;;5.60
13570;BMP180;6856;51.460;7.158;2023-04-03T04:35:22;101759.00;;;5.60
13570;BMP180;6856;51.460;7.158;2023-04-03T04:37:57;101771.00;;;5.50
13570;BMP180;6856;51.460;7.158;2023-04-03T04:40:32;101771.00;;;5.50
13570;BMP180;6856;51.460;7.158;2023-04-03T04:43:06;101779.00;;;5.50
13570;BMP180;6856;51.460;7.158;2023-04-03T04:45:39;101777.00;;;5.50
13570;BMP180;6856;51.460;7.158;2023-04-03T04:48:13;101777.00;;;5.50
13570;BMP180;6856;51.460;7.158;2023-04-03T04:50:47;101795.00;;;5.40
13570;BMP180;6856;51.460;7.158;2023-04-03T04:53:23;101778.00;;;5.40
13570;BMP180;6856;51.460;7.158;2023-04-03T04:55:57;101760.00;;;5.40
13570;BMP180;6856;51.460;7.158;2023-04-03T04:58:31;101790.00;;;5.40
13570;BMP180;6856;51.460;7.158;2023-04-03T05:01:09;101792.00;;;5.40
13570;BMP180;6856;51.460;7.158;2023-04-03T05:03:43;101790.00;;;5.40
13570;BMP180;6856;51.460;7.158;2023-04-03T05:06:17;101796.00;;;5.40
13570;BMP180;6856;51.460;7.158;2023-04-03T05:08:52;101798.00;;;5.40
13570;BMP180;6856;51.460;7.158;2023-04-03T05:11:26;101800.00;;;5.40
13570;BMP180;6856;51.460;7.158;2023-04-03T05:14:02;101808.00;;;5.40
13570;BMP180;6856;51.460;7.158;2023-04-03T05:16:38;101809.00;;;5.40
13570;BMP180;6856;51.460;7.158;2023-04-03T05:19:12;101814.00;;;5.40
13570;BMP180;6856;51.460;7.158;2023-04-03T05:21:46;101812.00;;;5.40
13570;BMP180;6856;51.460;7.158;2023-04-03T05:24:21;101817.00;;;5.40
13570;BMP180;6856;51.460;7.158;2023-04-03T05:27:01;101803.00;;;5.30
13570;BMP180;6856;51.460;7.158;2023-04-03T05:29:34;101826.00;;;5.30
13570;BMP180;6856;51.460;7.158;2023-04-03T05:32:09;101817.00;;;5.30
13570;BMP180;6856;51.460;7.158;2023-04-03T05:34:43;101821.00;;;5.40
13570;BMP180;6856;51.460;7.158;2023-04-03T05:37:17;101830.00;;;5.40
13570;BMP180;6856;51.460;7.158;2023-04-03T05:39:52;101839.00;;;5.40
13570;BMP180;6856;51.460;7.158;2023-04-03T05:42:26;101840.00;;;5.40
13570;BMP180;6856;51.460;7.158;2023-04-03T05:45:00;101845.00;;;5.40
13570;BMP180;6856;51.460;7.158;2023-04-03T05:47:34;101839.00;;;5.40
13570;BMP180;6856;51.460;7.158;2023-04-03T05:50:09;101852.00;;;5.40
13570;BMP180;6856;51.460;7.158;2023-04-03T05:52:47;101847.00;;;5.30
13570;BMP180;6856;51.460;7.158;2023-04-03T05:55:24;101852.00;;;5.40
13570;BMP180;6856;51.460;7.158;2023-04-03T05:57:58;101853.00;;;5.40
13570;BMP180;6856;51.460;7.158;2023-04-03T06:00:33;101856.00;;;5.40
13570;BMP180;6856;51.460;7.158;2023-04-03T06:03:07;101858.00;;;5.40
13570;BMP180;6856;51.460;7.158;2023-04-03T06:05:41;101854.00;;;5.40
13570;BMP180;6856;51.460;7.158;2023-04-03T06:08:15;101864.00;;;5.50
13570;BMP180;6856;51.460;7.158;2023-04-03T06:10:50;101852.00;;;5.50
13570;BMP180;6856;51.460;7.158;2023-04-03T06:13:25;101870.00;;;5.50
13570;BMP180;6856;51.460;7.158;2023-04-03T06:15:58;101854.00;;;5.50
13570;BMP180;6856;51.460;7.158;2023-04-03T06:18:32;101871.00;;;5.60
13570;BMP180;6856;51.460;7.158;2023-04-03T06:21:06;101864.00;;;5.60
13570;BMP180;6856;51.460;7.158;2023-04-03T06:23:40;101862.00;;;5.60
13570;BMP180;6856;51.460;7.158;2023-04-03T06:26:17;101862.00;;;5.60
13570;BMP180;6856;51.460;7.158;2023-04-03T06:28:51;101872.00;;;5.60
13570;BMP180;6856;51.460;7.158;2023-04-03T06:31:24;101875.00;;;5.60
13570;BMP180;6856;51.460;7.158;2023-04-03T06:34:03;101880.00;;;5.70
13570;BMP180;6856;51.460;7.158;2023-04-03T06:36:40;101869.00;;;5.70
13570;BMP180;6856;51.460;7.158;2023-04-03T06:39:18;101861.00;;;5.70
13570;BMP180;6856;51.460;7.158;2023-04-03T06:41:55;101859.00;;;5.70
13570;BMP180;6856;51.460;7.158;2023-04-03T06:44:28;101856.00;;;5.70
13570;BMP180;6856;51.460;7.158;2023-04-03T06:47:03;101860.00;;;5.80
13570;BMP180;6856;51.460;7.158;2023-04-03T06:49:37;101859.00;;;5.80
13570;BMP180;6856;51.460;7.158;2023-04-03T06:52:10;101861.00;;;5.80
13570;BMP180;6856;51.460;7.158;2023-04-03T06:54:45;101865.00;;;5.80
13570;BMP180;6856;51.460;7.158;2023-04-03T06:57:20;101872.00;;;5.90
13570;BMP180;6856;51.460;7.158;2023-04-03T06:59:55;101875.00;;;6.00
13570;BMP180;6856;51.460;7.158;2023-04-03T07:02:28;101876.00;;;6.00
13570;BMP180;6856;51.460;7.158;2023-04-03T07:05:03;101878.00;;;6.10
13570;BMP180;6856;51.460;7.158;2023-04-03T07:07:37;101871.00;;;6.10
13570;BMP180;6856;51.460;7.158;2023-04-03T07:10:11;101877.00;;;6.20
13570;BMP180;6856;51.460;7.158;2023-04-03T07:12:46;101878.00;;;6.20
13570;BMP180;6856;51.460;7.158;2023-04-03T07:15:19;101876.00;;;6.20
13570;BMP180;6856;51.460;7.158;2023-04-03T07:17:53;101899.00;;;6.30
13570;BMP180;6856;51.460;7.158;2023-04-03T07:20:27;101893.00;;;6.40
13570;BMP180;6856;51.460;7.158;2023-04-03T07:23:01;101902.00;;;6.40
13570;BMP180;6856;51.460;7.158;2023-04-03T07:25:35;101902.00;;;6.50
13570;BMP180;6856;51.460;7.158;2023-04-03T07:28:12;101914.00;;;6.60
13570;BMP180;6856;51.460;7.158;2023-04-03T07:30:49;101897.00;;;6.60
13570;BMP180;6856;51.460;7.158;2023-04-03T07:33:23;101906.00;;;6.70
13570;BMP180;6856;51.460;7.158;2023-04-03T07:35:59;101904.00;;;6.80
13570;BMP180;6856;51.460;7.158;2023-04-03T07:38:33;101918.00;;;6.80
13570;BMP180;6856;51.460;7.158;2023-04-03T07:41:12;101923.00;;;6.90
13570;BMP180;6856;51.460;7.158;2023-04-03T07:43:48;101917.00;;;7.00
13570;BMP180;6856;51.460;7.158;2023-04-03T07:46:24;101917.00;;;7.00
13570;BMP180;6856;51.460;7.158;2023-04-03T07:48:58;101907.00;;;7.10
13570;BMP180;6856;51.460;7.158;2023-04-03T07:51:32;101912.00;;;7.10
13570;BMP180;6856;51.460;7.158;2023-04-03T07:54:07;101910.00;;;7.20
13570;BMP180;6856;51.460;7.158;2023-04-03T07:56:41;101908.00;;;7.30
13570;BMP180;6856;51.460;7.158;2023-04-03T07:59:17;101908.00;;;7.40
13570;BMP180;6856;51.460;7.158;2023-04-03T08:01:51;101891.00;;;7.50
13570;BMP180;6856;51.460;7.158;2023-04-03T08:04:25;101923.00;;;7.50
13570;BMP180;6856;51.460;7.158;2023-04-03T08:06:59;101920.00;;;7.60
13570;BMP180;6856;51.460;7.158;2023-04-03T08:09:33;101919.00;;;7.70
13570;BMP180;6856;51.460;7.158;2023-04-03T08:12:07;101907.00;;;7.80
13570;BMP180;6856;51.460;7.158;2023-04-03T08:14:44;101922.00;;;7.90
13570;BMP180;6856;51.460;7.158;2023-04-03T08:17:18;101925.00;;;7.90
13570;BMP180;6856;51.460;7.158;2023-04-03T08:19:52;101922.00;;;8.00
13570;BMP180;6856;51.460;7.158;2023-04-03T08:22:25;101922.00;;;8.00
13570;BMP180;6856;51.460;7.158;2023-04-03T08:24:59;101907.00;;;8.10
13570;BMP180;6856;51.460;7.158;2023-04-03T08:27:34;101918.00;;;8.10
13570;BMP180;6856;51.460;7.158;2023-04-03T08:30:12;101919.00;;;8.20
13570;BMP180;6856;51.460;7.158;2023-04-03T08:32:45;101921.00;;;8.20
13570;BMP180;6856;51.460;7.158;2023-04-03T08:35:19;101918.00;;;8.30
13570;BMP180;6856;51.460;7.158;2023-04-03T08:37:53;101931.00;;;8.30
13570;BMP180;6856;51.460;7.158;2023-04-03T08:40:27;101930.00;;;8.40
13570;BMP180;6856;51.460;7.158;2023-04-03T08:43:26;101934.00;;;8.50
13570;BMP180;6856;51.460;7.158;2023-04-03T08:46:09;101946.00;;;8.50
13570;BMP180;6856;51.460;7.158;2023-04-03T08:48:45;101942.00;;;8.60
13570;BMP180;6856;51.460;7.158;2023-04-03T08:51:20;101917.00;;;8.60
13570;BMP180;6856;51.460;7.158;2023-04-03T08:53:59;101939.00;;;8.70
13570;BMP180;6856;51.460;7.158;2023-04-03T08:56:36;101933.00;;;8.80
13570;BMP180;6856;51.460;7.158;2023-04-03T08:59:14;101937.00;;;8.90
13570;BMP180;6856;51.460;7.158;2023-04-03T09:01:57;101947.00;;;8.90
13570;BMP180;6856;51.460;7.158;2023-04-03T09:04:34;101939.00;;;9.00
13570;BMP180;6856;51.460;7.158;2023-04-03T09:07:16;101930.00;;;9.00
13570;BMP180;6856;51.460;7.158;2023-04-03T09:09:54;101932.00;;;9.00
13570;BMP180;6856;51.460;7.158;2023-04-03T09:12:36;101935.00;;;9.20
13570;BMP180;6856;51.460;7.158;2023-04-03T09:15:19;101937.00;;;9.30
13570;BMP180;6856;51.460;7.158;2023-04-03T09:18:20;101937.00;;;9.40
13570;BMP180;6856;51.460;7.158;2023-04-03T09:21:03;101939.00;;;9.40
13570;BMP180;6856;51.460;7.158;2023-04-03T09:23:46;101943.00;;;9.50
13570;BMP180;6856;51.460;7.158;2023-04-03T09:26:26;101932.00;;;9.60
13570;BMP180;6856;51.460;7.158;2023-04-03T09:29:06;101931.00;;;9.70
13570;BMP180;6856;51.460;7.158;2023-04-03T09:31:43;101942.00;;;9.80
13570;BMP180;6856;51.460;7.158;2023-04-03T09:34:25;101941.00;;;9.90
13570;BMP180;6856;51.460;7.158;2023-04-03T09:37:01;101954.00;;;10.00
13570;BMP180;6856;51.460;7.158;2023-04-03T09:39:52;101940.00;;;10.10
13570;BMP180;6856;51.460;7.158;2023-04-03T09:42:31;101942.00;;;10.20
13570;BMP180;6856;51.460;7.158;2023-04-03T09:45:22;101932.00;;;10.30
13570;BMP180;6856;51.460;7.158;2023-04-03T09:48:16;101937.00;;;10.40
13570;BMP180;6856;51.460;7.158;2023-04-03T09:51:01;101926.00;;;10.40
13570;BMP180;6856;51.460;7.158;2023-04-03T09:53:38;101930.00;;;10.50
13570;BMP180;6856;51.460;7.158;2023-04-03T09:56:24;101931.00;;;10.60
13570;BMP180;6856;51.460;7.158;2023-04-03T09:59:14;101915.00;;;10.60
13570;BMP180;6856;51.460;7.158;2023-04-03T10:01:59;101924.00;;;10.70
13570;BMP180;6856;51.460;7.158;2023-04-03T10:04:40;101929.00;;;10.80
13570;BMP180;6856;51.460;7.158;2023-04-03T10:07:32;101927.00;;;10.90
13570;BMP180;6856;51.460;7.158;2023-04-03T10:10:18;101923.00;;;11.00
13570;BMP180;6856;51.460;7.158;2023-04-03T10:13:06;101927.00;;;11.10
13570;BMP180;6856;51.460;7.158;2023-04-03T10:15:51;101934.00;;;11.20
13570;BMP180;6856;51.460;7.158;2023-04-03T10:18:39;101938.00;;;11.20
13570;BMP180;6856;51.460;7.158;2023-04-03T10:21:29;101919.00;;;11.30
13570;BMP180;6856;51.460;7.158;2023-04-03T10:24:14;101913.00;;;11.30
13570;BMP180;6856;51.460;7.158;2023-04-03T10:26:58;101926.00;;;11.40
13570;BMP180;6856;51.460;7.158;2023-04-03T10:29:42;101922.00;;;11.50
13570;BMP180;6856;51.460;7.158;2023-04-03T10:32:39;101924.00;;;11.60
13570;BMP180;6856;51.460;7.158;2023-04-03T10:35:32;101918.00;;;11.60
13570;BMP180;6856;51.460;7.158;2023-04-03T10:38:19;101923.00;;;11.60
13570;BMP180;6856;51.460;7.158;2023-04-03T10:41:02;101909.00;;;11.70
13570;BMP180;6856;51.460;7.158;2023-04-03T10:43:49;101917.00;;;11.70
13570;BMP180;6856;51.460;7.158;2023-04-03T10:46:32;101907.00;;;11.80
13570;BMP180;6856;51.460;7.158;2023-04-03T10:49:32;101910.00;;;11.90
13570;BMP180;6856;51.460;7.158;2023-04-03T10:52:23;101916.00;;;12.00
13570;BMP180;6856;51.460;7.158;2023-04-03T10:55:14;101922.00;;;12.10
13570;BMP180;6856;51.460;7.158;2023-04-03T10:57:58;101902.00;;;12.10
13570;BMP180;6856;51.460;7.158;2023-04-03T11:00:41;101897.00;;;12.20
13570;BMP180;6856;51.460;7.158;2023-04-03T11:03:29;101896.00;;;12.30
13570;BMP180;6856;51.460;7.158;2023-04-03T11:06:10;101904.00;;;12.40
13570;BMP180;6856;51.460;7.158;2023-04-03T11:08:49;101895.00;;;12.50
13570;BMP180;6856;51.460;7.158;2023-04-03T11:11:32;101905.00;;;12.50
13570;BMP180;6856;51.460;7.158;2023-04-03T11:14:20;101888.00;;;12.60
13570;BMP180;6856;51.460;7.158;2023-04-03T11:17:13;101872.00;;;12.70
13570;BMP180;6856;51.460;7.158;2023-04-03T11:20:03;101886.00;;;12.70
13570;BMP180;6856;51.460;7.158;2023-04-03T11:22:43;101882.00;;;12.80
13570;BMP180;6856;51.460;7.158;2023-04-03T11:25:23;101875.00;;;12.80
13570;BMP180;6856;51.460;7.158;2023-04-03T11:28:04;101855.00;;;12.80
13570;BMP180;6856;51.460;7.158;2023-04-03T11:30:47;101855.00;;;12.90
13570;BMP180;6856;51.460;7.158;2023-04-03T11:33:47;101862.00;;;13.00
13570;BMP180;6856;51.460;7.158;2023-04-03T11:36:28;101874.00;;;13.00
13570;BMP180;6856;51.460;7.158;2023-04-03T11:39:21;101857.00;;;13.10
13570;BMP180;6856;51.460;7.158;2023-04-03T11:42:15;101858.00;;;13.20
13570;BMP180;6856;51.460;7.158;2023-04-03T11:44:50;101869.00;;;13.20
13570;BMP180;6856;51.460;7.158;2023-04-03T11:47:50;101859.00;;;13.30
13570;BMP180;6856;51.460;7.158;2023-04-03T11:50:39;101865.00;;;13.30
13570;BMP180;6856;51.460;7.158;2023-04-03T11:53:33;101869.00;;;13.40
13570;BMP180;6856;51.460;7.158;2023-04-03T11:56:32;101852.00;;;13.40
13570;BMP180;6856;51.460;7.158;2023-04-03T11:59:23;101847.00;;;13.50
13570;BMP180;6856;51.460;7.158;2023-04-03T12:01:57;101846.00;;;13.60
13570;BMP180;6856;51.460;7.158;2023-04-03T12:04:33;101856.00;;;13.70
13570;BMP180;6856;51.460;7.158;2023-04-03T12:07:16;101854.00;;;13.80
13570;BMP180;6856;51.460;7.158;2023-04-03T12:09:58;101853.00;;;13.80
13570;BMP180;6856;51.460;7.158;2023-04-03T12:12:42;101845.00;;;13.90
13570;BMP180;6856;51.460;7.158;2023-04-03T12:15:50;101852.00;;;14.00
13570;BMP180;6856;51.460;7.158;2023-04-03T12:22:13;101852.00;;;14.10
13570;BMP180;6856;51.460;7.158;2023-04-03T12:24:51;101842.00;;;14.20
13570;BMP180;6856;51.460;7.158;2023-04-03T12:27:34;101852.00;;;14.20
13570;BMP180;6856;51.460;7.158;2023-04-03T12:30:25;101831.00;;;14.30
13570;BMP180;6856;51.460;7.158;2023-04-03T12:33:27;101830.00;;;14.30
13570;BMP180;6856;51.460;7.158;2023-04-03T12:36:11;101836.00;;;14.40
13570;BMP180;6856;51.460;7.158;2023-04-03T12:39:36;101824.00;;;14.50
13570;BMP180;6856;51.460;7.158;2023-04-03T12:42:55;101842.00;;;14.50
13570;BMP180;6856;51.460;7.158;2023-04-03T12:45:41;101814.00;;;14.60
13570;BMP180;6856;51.460;7.158;2023-04-03T12:48:22;101829.00;;;14.60
13570;BMP180;6856;51.460;7.158;2023-04-03T12:50:59;101830.00;;;14.60
13570;BMP180;6856;51.460;7.158;2023-04-03T12:53:36;101820.00;;;14.70
13570;BMP180;6856;51.460;7.158;2023-04-03T12:56:25;101816.00;;;14.70
13570;BMP180;6856;51.460;7.158;2023-04-03T12:59:15;101811.00;;;14.80
13570;BMP180;6856;51.460;7.158;2023-04-03T13:01:57;101813.00;;;14.80
13570;BMP180;6856;51.460;7.158;2023-04-03T13:04:38;101826.00;;;14.80
13570;BMP180;6856;51.460;7.158;2023-04-03T13:07:22;101813.00;;;14.90
13570;BMP180;6856;51.460;7.158;2023-04-03T13:10:09;101789.00;;;14.90
13570;BMP180;6856;51.460;7.158;2023-04-03T13:12:51;101799.00;;;15.00
13570;BMP180;6856;51.460;7.158;2023-04-03T13:15:27;101803.00;;;15.00
13570;BMP180;6856;51.460;7.158;2023-04-03T13:18:01;101802.00;;;15.00
13570;BMP180;6856;51.460;7.158;2023-04-03T13:20:37;101799.00;;;15.00
13570;BMP180;6856;51.460;7.158;2023-04-03T13:23:14;101802.00;;;15.00
13570;BMP180;6856;51.460;7.158;2023-04-03T13:25:53;101790.00;;;15.10
13570;BMP180;6856;51.460;7.158;2023-04-03T13:28:30;101795.00;;;15.10
13570;BMP180;6856;51.460;7.158;2023-04-03T13:31:14;101786.00;;;15.20
13570;BMP180;6856;51.460;7.158;2023-04-03T13:34:01;101782.00;;;15.20
13570;BMP180;6856;51.460;7.158;2023-04-03T13:36:39;101793.00;;;15.20
13570;BMP180;6856;51.460;7.158;2023-04-03T13:39:24;101780.00;;;15.20
13570;BMP180;6856;51.460;7.158;2023-04-03T13:42:02;101779.00;;;15.20
13570;BMP180;6856;51.460;7.158;2023-04-03T13:44:49;101787.00;;;15.20
13570;BMP180;6856;51.460;7.158;2023-04-03T13:47:41;101794.00;;;15.20
13570;BMP180;6856;51.460;7.158;2023-04-03T13:50:20;101789.00;;;15.20
13570;BMP180;6856;51.460;7.158;2023-04-03T13:53:01;101774.00;;;15.20
13570;BMP180;6856;51.460;7.158;2023-04-03T13:55:53;101776.00;;;15.20
13570;BMP180;6856;51.460;7.158;2023-04-03T13:58:30;101778.00;;;15.30
13570;BMP180;6856;51.460;7.158;2023-04-03T14:01:17;101775.00;;;15.30
13570;BMP180;6856;51.460;7.158;2023-04-03T14:03:56;101756.00;;;15.30
13570;BMP180;6856;51.460;7.158;2023-04-03T14:06:30;101783.00;;;15.30
13570;BMP180;6856;51.460;7.158;2023-04-03T14:09:04;101763.00;;;15.20
13570;BMP180;6856;51.460;7.158;2023-04-03T14:11:38;101779.00;;;15.20
13570;BMP180;6856;51.460;7.158;2023-04-03T14:14:17;101773.00;;;15.20
13570;BMP180;6856;51.460;7.158;2023-04-03T14:16:55;101770.00;;;15.10
13570;BMP180;6856;51.460;7.158;2023-04-03T14:19:32;101761.00;;;15.10
13570;BMP180;6856;51.460;7.158;2023-04-03T14:22:16;101767.00;;;15.10
13570;BMP180;6856;51.460;7.158;2023-04-03T14:24:50;101756.00;;;15.10
13570;BMP180;6856;51.460;7.158;2023-04-03T14:27:27;101753.00;;;15.10
13570;BMP180;6856;51.460;7.158;2023-04-03T14:30:06;101760.00;;;15.10
13570;BMP180;6856;51.460;7.158;2023-04-03T14:32:41;101758.00;;;15.10
13570;BMP180;6856;51.460;7.158;2023-04-03T14:35:17;101729.00;;;15.00
13570;BMP180;6856;51.460;7.158;2023-04-03T14:37:52;101746.00;;;15.00
13570;BMP180;6856;51.460;7.158;2023-04-03T14:40:27;101754.00;;;15.00
13570;BMP180;6856;51.460;7.158;2023-04-03T14:43:01;101746.00;;;15.00
13570;BMP180;6856;51.460;7.158;2023-04-03T14:45:34;101749.00;;;15.00
13570;BMP180;6856;51.460;7.158;2023-04-03T14:48:19;101739.00;;;14.90
13570;BMP180;6856;51.460;7.158;2023-04-03T14:50:54;101743.00;;;14.90
13570;BMP180;6856;51.460;7.158;2023-04-03T14:53:38;101743.00;;;14.90
13570;BMP180;6856;51.460;7.158;2023-04-03T14:56:14;101739.00;;;14.90
13570;BMP180;6856;51.460;7.158;2023-04-03T14:58:55;101732.00;;;14.90
13570;BMP180;6856;51.460;7.158;2023-04-03T15:01:28;101742.00;;;14.90
13570;BMP180;6856;51.460;7.158;2023-04-03T15:04:10;101721.00;;;15.00
13570;BMP180;6856;51.460;7.158;2023-04-03T15:06:45;101733.00;;;15.00
13570;BMP180;6856;51.460;7.158;2023-04-03T15:09:22;101712.00;;;15.00
13570;BMP180;6856;51.460;7.158;2023-04-03T15:11:56;101736.00;;;15.00
13570;BMP180;6856;51.460;7.158;2023-04-03T15:14:30;101722.00;;;15.00
13570;BMP180;6856;51.460;7.158;2023-04-03T15:17:14;101734.00;;;15.00
13570;BMP180;6856;51.460;7.158;2023-04-03T15:19:50;101732.00;;;14.90
13570;BMP180;6856;51.460;7.158;2023-04-03T15:22:25;101730.00;;;14.90
13570;BMP180;6856;51.460;7.158;2023-04-03T15:24:59;101718.00;;;14.90